createdAt,value
2018-02-25T00:02:53.003Z,51.60
2018-02-25T00:08:21.172Z,51.70
2018-02-25T00:13:49.429Z,51.80
2018-02-25T00:19:18.346Z,52.00
2018-02-25T00:24:46.491Z,52.00
2018-02-25T00:30:14.638Z,52.10
2018-02-25T00:35:42.769Z,52.10
2018-02-25T00:41:11.873Z,52.20
2018-02-25T00:46:40.831Z,52.30
2018-02-25T00:52:09.012Z,52.30
2018-02-25T00:57:37.155Z,52.40
2018-02-25T01:03:05.302Z,53.10
2018-02-25T01:08:33.448Z,52.60
2018-02-25T01:14:01.626Z,52.80
2018-02-25T01:19:31.310Z,52.90
2018-02-25T01:24:59.466Z,52.90
2018-02-25T01:30:27.639Z,53.00
2018-02-25T01:35:55.820Z,53.10
2018-02-25T01:41:24.729Z,53.20
2018-02-25T01:46:52.887Z,53.10
2018-02-25T01:52:21.049Z,53.30
2018-02-25T01:57:49.243Z,53.40
2018-02-25T02:03:17.400Z,53.40
2018-02-25T02:08:45.555Z,53.50
2018-02-25T02:14:14.466Z,53.70
2018-02-25T02:19:42.645Z,53.60
2018-02-25T02:25:10.813Z,53.80
2018-02-25T02:30:38.948Z,53.70
2018-02-25T02:36:07.854Z,53.80
2018-02-25T02:41:36.009Z,53.80
2018-02-25T02:47:04.920Z,53.90
2018-02-25T02:52:33.071Z,53.90
2018-02-25T02:58:03.101Z,54.00
2018-02-25T03:03:31.349Z,54.00
2018-02-25T03:09:00.263Z,54.10
2018-02-25T03:14:28.460Z,54.10
2018-02-25T03:19:56.689Z,54.20
2018-02-25T03:25:24.912Z,54.30
2018-02-25T03:30:53.133Z,54.40
2018-02-25T03:36:21.412Z,54.40
2018-02-25T03:41:49.639Z,54.60
2018-02-25T03:47:18.101Z,54.70
2018-02-25T03:52:46.264Z,54.80
2018-02-25T03:58:15.196Z,55.00
2018-02-25T04:03:44.174Z,55.10
2018-02-25T04:09:12.402Z,55.00
2018-02-25T04:14:40.580Z,55.10
2018-02-25T04:20:09.541Z,55.20
2018-02-25T04:25:37.752Z,55.20
2018-02-25T04:31:06.777Z,55.40
2018-02-25T04:36:35.724Z,55.50
2018-02-25T04:42:03.925Z,55.40
2018-02-25T04:47:32.129Z,55.40
2018-02-25T04:53:00.307Z,55.70
2018-02-25T04:58:28.465Z,55.70
2018-02-25T05:03:56.653Z,55.70
2018-02-25T05:09:24.900Z,55.80
2018-02-25T05:14:53.076Z,55.80
2018-02-25T05:20:22.038Z,55.90
2018-02-25T05:25:50.228Z,55.70
2018-02-25T05:31:18.470Z,55.80
2018-02-25T05:36:46.666Z,55.70
2018-02-25T05:42:15.593Z,55.80
2018-02-25T05:47:43.786Z,55.80
2018-02-25T05:53:11.977Z,55.70
2018-02-25T05:58:40.183Z,55.70
2018-02-25T06:04:08.434Z,55.70
2018-02-25T06:09:36.635Z,55.60
2018-02-25T06:15:04.856Z,55.70
2018-02-25T06:20:33.063Z,55.70
2018-02-25T06:26:01.223Z,55.80
2018-02-25T06:31:29.430Z,55.80
2018-02-25T06:36:57.649Z,55.80
2018-02-25T06:42:25.804Z,55.60
2018-02-25T06:47:54.031Z,55.70
2018-02-25T06:53:22.192Z,55.60
2018-02-25T06:58:50.366Z,55.50
2018-02-25T07:04:18.564Z,55.40
2018-02-25T07:09:47.472Z,55.40
2018-02-25T07:15:15.619Z,55.30
2018-02-25T07:20:43.837Z,55.10
2018-02-25T07:26:12.019Z,54.90
2018-02-25T07:31:40.178Z,54.90
2018-02-25T07:37:08.326Z,55.10
2018-02-25T07:42:36.488Z,54.90
2018-02-25T07:48:04.656Z,54.90
2018-02-25T07:53:32.811Z,54.70
2018-02-25T07:59:01.711Z,54.80
2018-02-25T08:04:29.871Z,54.80
2018-02-25T08:09:58.793Z,54.10
2018-02-25T08:15:27.983Z,54.10
2018-02-25T08:20:56.210Z,53.70
2018-02-25T08:26:26.362Z,53.90
2018-02-25T08:31:54.863Z,54.00
2018-02-25T08:43:39.066Z,53.30
2018-02-25T08:49:07.219Z,52.80
2018-02-25T08:54:35.404Z,52.50
2018-02-25T09:00:03.629Z,52.80
2018-02-25T09:05:31.831Z,52.30
2018-02-25T09:11:00.001Z,52.10
2018-02-25T09:16:28.177Z,51.70
2018-02-25T09:21:56.348Z,51.70
2018-02-25T09:27:24.504Z,51.20
2018-02-25T09:32:53.482Z,51.20
2018-02-25T09:38:21.691Z,51.20
2018-02-25T09:43:50.760Z,50.40
2018-02-25T09:49:18.971Z,51.20
2018-02-25T09:54:47.181Z,50.90
2018-02-25T10:00:15.424Z,51.20
2018-02-25T10:05:43.619Z,50.30
2018-02-25T10:11:11.827Z,50.10
2018-02-25T10:16:40.094Z,49.90
2018-02-25T10:22:12.331Z,49.80
2018-02-25T10:27:40.726Z,49.70
2018-02-25T10:33:09.838Z,49.40
2018-02-25T10:38:38.214Z,48.50
2018-02-25T10:44:23.746Z,48.60
2018-02-25T10:49:55.015Z,48.50
2018-02-25T10:55:23.239Z,47.80
2018-02-25T11:00:56.983Z,46.60
2018-02-25T11:06:25.158Z,46.90
2018-02-25T11:11:54.085Z,47.00
2018-02-25T11:17:22.993Z,46.90
2018-02-25T11:22:51.153Z,46.70
2018-02-25T11:28:19.304Z,45.90
2018-02-25T11:33:47.478Z,45.30
2018-02-25T11:39:16.395Z,45.50
2018-02-25T11:44:44.591Z,45.50
2018-02-25T11:50:12.743Z,45.50
2018-02-25T11:55:40.896Z,45.00
2018-02-25T12:01:16.119Z,44.50
2018-02-25T12:06:51.400Z,44.00
2018-02-25T12:12:20.784Z,44.80
2018-02-25T12:17:50.052Z,44.80
2018-02-25T12:23:19.176Z,44.50
2018-02-25T12:28:48.162Z,44.00
2018-02-25T12:34:16.380Z,43.90
2018-02-25T12:39:44.568Z,44.00
2018-02-25T12:45:13.500Z,42.70
2018-02-25T12:50:41.651Z,42.60
2018-02-25T12:56:09.837Z,42.50
2018-02-25T13:01:38.750Z,43.80
2018-02-25T13:07:06.891Z,43.20
2018-02-25T13:12:35.043Z,42.00
2018-02-25T13:18:03.189Z,41.80
2018-02-25T13:23:31.373Z,42.10
2018-02-25T13:28:59.533Z,41.90
2018-02-25T13:34:27.754Z,39.30
2018-02-25T13:39:56.015Z,38.40
2018-02-25T13:45:24.170Z,38.90
2018-02-25T13:50:53.378Z,39.70
2018-02-25T13:56:21.570Z,39.80
2018-02-25T14:01:49.749Z,39.20
2018-02-25T14:07:17.967Z,38.20
2018-02-25T14:12:46.130Z,35.10
2018-02-25T14:18:14.304Z,32.60
2018-02-25T14:23:42.478Z,30.90
2018-02-25T14:29:10.623Z,29.70
2018-02-25T14:34:43.254Z,29.90
2018-02-25T14:40:12.161Z,28.80
2018-02-25T14:45:40.373Z,28.80
2018-02-25T14:51:08.527Z,29.40
2018-02-25T14:56:37.587Z,28.70
2018-02-25T15:02:06.603Z,28.10
2018-02-25T15:07:35.527Z,29.30
2018-02-25T15:13:03.705Z,29.20
2018-02-25T15:18:31.857Z,29.20
2018-02-25T15:24:00.207Z,29.60
2018-02-25T15:29:29.294Z,28.90
2018-02-25T15:34:57.480Z,28.90
2018-02-25T15:40:26.414Z,29.30
2018-02-25T15:45:55.362Z,29.60
2018-02-25T15:51:23.555Z,29.50
2018-02-25T15:56:51.856Z,30.90
2018-02-25T16:02:21.001Z,31.50
2018-02-25T16:07:49.168Z,31.50
2018-02-25T16:13:18.240Z,33.50
2018-02-25T16:18:46.394Z,33.50
2018-02-25T16:24:15.559Z,33.30
2018-02-25T16:29:44.459Z,34.40
2018-02-25T16:35:12.612Z,34.30
2018-02-25T16:40:40.825Z,35.00
2018-02-25T16:46:09.119Z,35.60
2018-02-25T16:51:37.304Z,36.30
2018-02-25T16:57:07.453Z,36.80
2018-02-25T17:02:36.394Z,37.60
2018-02-25T17:08:04.565Z,37.60
2018-02-25T17:13:32.759Z,37.90
2018-02-25T17:19:06.884Z,38.20
2018-02-25T17:24:35.076Z,38.50
2018-02-25T17:30:03.431Z,38.80
2018-02-25T17:35:33.325Z,39.30
2018-02-25T17:41:01.483Z,39.20
2018-02-25T17:46:29.639Z,39.60
2018-02-25T17:51:57.791Z,39.70
2018-02-25T17:57:25.968Z,40.00
2018-02-25T18:02:54.216Z,40.20
2018-02-25T18:08:26.225Z,40.60
2018-02-25T18:13:57.767Z,40.50
2018-02-25T18:19:27.004Z,40.70
2018-02-25T18:25:18.604Z,40.90
2018-02-25T18:36:37.656Z,41.20
2018-02-25T18:42:05.939Z,41.40
2018-02-25T18:47:34.092Z,41.60
2018-02-25T18:53:02.319Z,42.20
2018-02-25T18:58:31.484Z,41.90
2018-02-25T19:03:59.764Z,42.00
2018-02-25T19:09:28.722Z,42.50
2018-02-25T19:14:56.886Z,42.50
2018-02-25T19:20:25.044Z,42.70
2018-02-25T19:25:53.955Z,43.10
2018-02-25T19:31:22.169Z,43.10
2018-02-25T19:36:56.042Z,43.20
2018-02-25T19:42:24.211Z,43.40
2018-02-25T19:47:52.393Z,43.60
2018-02-25T19:53:22.247Z,43.80
2018-02-25T19:58:51.184Z,43.90
2018-02-25T20:04:19.356Z,43.90
2018-02-25T20:09:47.599Z,44.10
2018-02-25T20:15:15.804Z,44.20
2018-02-25T20:20:44.574Z,44.30
2018-02-25T20:26:13.533Z,44.70
2018-02-25T20:31:45.715Z,44.60
2018-02-25T20:37:13.880Z,44.80
2018-02-25T20:42:42.051Z,44.90
2018-02-25T20:48:10.227Z,45.00
2018-02-25T20:53:38.400Z,45.20
2018-02-25T20:59:06.547Z,45.50
2018-02-25T21:04:35.479Z,45.90
2018-02-25T21:10:04.475Z,46.00
2018-02-25T21:15:32.730Z,46.00
2018-02-25T21:21:02.627Z,46.20
2018-02-25T21:26:30.800Z,46.20
2018-02-25T21:31:58.963Z,46.40
2018-02-25T21:37:28.107Z,46.50
2018-02-25T21:42:57.222Z,46.80
2018-02-25T21:48:26.177Z,47.10
2018-02-25T21:53:55.308Z,47.20
2018-02-25T21:59:30.911Z,47.40
2018-02-25T22:04:59.830Z,47.60
2018-02-25T22:10:27.984Z,47.60
2018-02-25T22:15:56.135Z,47.90
2018-02-25T22:21:24.331Z,48.00
2018-02-25T22:26:52.551Z,48.10
2018-02-25T22:32:20.731Z,48.10
2018-02-25T22:37:49.683Z,48.40
2018-02-25T22:43:18.656Z,48.60
2018-02-25T22:48:46.868Z,48.50
2018-02-25T22:54:15.059Z,48.60
2018-02-25T22:59:43.993Z,48.60
2018-02-25T23:05:12.991Z,48.50
2018-02-25T23:10:41.309Z,48.50
2018-02-25T23:16:09.479Z,48.40
2018-02-25T23:21:38.412Z,48.40
2018-02-25T23:27:07.343Z,48.50
2018-02-25T23:32:35.505Z,48.40
2018-02-25T23:38:03.700Z,48.50
2018-02-25T23:43:31.831Z,48.50
2018-02-25T23:49:00.017Z,48.60
2018-02-25T23:54:28.174Z,48.60
2018-02-25T23:59:56.344Z,48.70
